sensor_id;sensor_type;location;lat;lon;timestamp;P1;durP1;ratioP1;P2;durP2;ratioP2
12224;SDS011;6175;50.956;11.064;2023-05-19T00:01:18;3.20;;;2.90;;
12224;SDS011;6175;50.956;11.064;2023-05-19T00:03:49;5.28;;;2.97;;
12224;SDS011;6175;50.956;11.064;2023-05-19T00:06:19;4.20;;;2.88;;
12224;SDS011;6175;50.956;11.064;2023-05-19T00:08:47;5.82;;;3.17;;
12224;SDS011;6175;50.956;11.064;2023-05-19T00:11:15;4.10;;;2.67;;
12224;SDS011;6175;50.956;11.064;2023-05-19T00:13:42;6.13;;;3.40;;
12224;SDS011;6175;50.956;11.064;2023-05-19T00:16:13;5.10;;;3.50;;
12224;SDS011;6175;50.956;11.064;2023-05-19T00:18:40;3.47;;;3.03;;
12224;SDS011;6175;50.956;11.064;2023-05-19T00:21:09;4.32;;;2.70;;
12224;SDS011;6175;50.956;11.064;2023-05-19T00:23:36;3.97;;;3.03;;
12224;SDS011;6175;50.956;11.064;2023-05-19T00:26:03;4.13;;;3.28;;
12224;SDS011;6175;50.956;11.064;2023-05-19T00:28:30;4.57;;;3.05;;
12224;SDS011;6175;50.956;11.064;2023-05-19T00:30:57;5.97;;;4.65;;
12224;SDS011;6175;50.956;11.064;2023-05-19T00:33:26;6.05;;;4.70;;
12224;SDS011;6175;50.956;11.064;2023-05-19T00:35:52;4.85;;;4.10;;
12224;SDS011;6175;50.956;11.064;2023-05-19T00:38:21;6.30;;;4.15;;
12224;SDS011;6175;50.956;11.064;2023-05-19T00:40:48;5.75;;;4.05;;
12224;SDS011;6175;50.956;11.064;2023-05-19T00:43:15;4.90;;;4.18;;
12224;SDS011;6175;50.956;11.064;2023-05-19T00:45:43;4.70;;;4.03;;
12224;SDS011;6175;50.956;11.064;2023-05-19T00:48:10;5.55;;;3.72;;
12224;SDS011;6175;50.956;11.064;2023-05-19T00:50:38;4.68;;;4.13;;
12224;SDS011;6175;50.956;11.064;2023-05-19T00:53:05;5.55;;;3.90;;
12224;SDS011;6175;50.956;11.064;2023-05-19T00:55:35;4.50;;;4.05;;
12224;SDS011;6175;50.956;11.064;2023-05-19T00:58:04;4.45;;;4.05;;
12224;SDS011;6175;50.956;11.064;2023-05-19T01:00:32;4.68;;;3.72;;
12224;SDS011;6175;50.956;11.064;2023-05-19T01:03:01;5.45;;;3.85;;
12224;SDS011;6175;50.956;11.064;2023-05-19T01:05:35;3.95;;;3.30;;
12224;SDS011;6175;50.956;11.064;2023-05-19T01:08:02;3.85;;;3.25;;
12224;SDS011;6175;50.956;11.064;2023-05-19T01:10:29;7.45;;;3.42;;
12224;SDS011;6175;50.956;11.064;2023-05-19T01:12:58;4.35;;;3.58;;
12224;SDS011;6175;50.956;11.064;2023-05-19T01:15:26;4.32;;;3.38;;
12224;SDS011;6175;50.956;11.064;2023-05-19T01:17:55;4.28;;;3.78;;
12224;SDS011;6175;50.956;11.064;2023-05-19T01:20:29;3.78;;;3.40;;
12224;SDS011;6175;50.956;11.064;2023-05-19T01:23:10;4.95;;;3.33;;
12224;SDS011;6175;50.956;11.064;2023-05-19T01:31:27;4.28;;;3.45;;
12224;SDS011;6175;50.956;11.064;2023-05-19T01:33:55;3.50;;;3.20;;
12224;SDS011;6175;50.956;11.064;2023-05-19T01:36:22;3.78;;;3.38;;
12224;SDS011;6175;50.956;11.064;2023-05-19T01:38:52;3.72;;;2.97;;
12224;SDS011;6175;50.956;11.064;2023-05-19T01:41:21;4.57;;;3.40;;
12224;SDS011;6175;50.956;11.064;2023-05-19T01:43:49;4.35;;;3.08;;
12224;SDS011;6175;50.956;11.064;2023-05-19T01:46:18;3.85;;;3.13;;
12224;SDS011;6175;50.956;11.064;2023-05-19T01:48:47;6.10;;;3.42;;
12224;SDS011;6175;50.956;11.064;2023-05-19T01:51:14;3.70;;;3.15;;
12224;SDS011;6175;50.956;11.064;2023-05-19T01:53:41;4.63;;;3.22;;
12224;SDS011;6175;50.956;11.064;2023-05-19T01:56:08;4.00;;;3.30;;
12224;SDS011;6175;50.956;11.064;2023-05-19T01:58:36;5.55;;;3.63;;
12224;SDS011;6175;50.956;11.064;2023-05-19T02:01:09;4.40;;;2.95;;
12224;SDS011;6175;50.956;11.064;2023-05-19T02:03:42;3.97;;;3.33;;
12224;SDS011;6175;50.956;11.064;2023-05-19T02:06:25;4.90;;;3.20;;
12224;SDS011;6175;50.956;11.064;2023-05-19T02:08:59;5.00;;;3.25;;
12224;SDS011;6175;50.956;11.064;2023-05-19T02:11:31;4.63;;;3.60;;
12224;SDS011;6175;50.956;11.064;2023-05-19T02:14:02;3.90;;;3.35;;
12224;SDS011;6175;50.956;11.064;2023-05-19T02:16:33;3.80;;;3.30;;
12224;SDS011;6175;50.956;11.064;2023-05-19T02:19:01;4.45;;;3.33;;
12224;SDS011;6175;50.956;11.064;2023-05-19T02:21:28;6.53;;;3.42;;
12224;SDS011;6175;50.956;11.064;2023-05-19T02:23:55;3.97;;;3.58;;
12224;SDS011;6175;50.956;11.064;2023-05-19T02:26:23;5.07;;;3.78;;
12224;SDS011;6175;50.956;11.064;2023-05-19T02:28:50;5.47;;;3.80;;
12224;SDS011;6175;50.956;11.064;2023-05-19T02:31:17;5.32;;;3.72;;
12224;SDS011;6175;50.956;11.064;2023-05-19T02:33:44;4.32;;;3.92;;
12224;SDS011;6175;50.956;11.064;2023-05-19T02:36:13;4.30;;;3.58;;
12224;SDS011;6175;50.956;11.064;2023-05-19T02:38:40;4.43;;;3.40;;
12224;SDS011;6175;50.956;11.064;2023-05-19T02:41:07;5.07;;;3.30;;
12224;SDS011;6175;50.956;11.064;2023-05-19T02:43:34;4.47;;;3.40;;
12224;SDS011;6175;50.956;11.064;2023-05-19T02:46:01;5.32;;;3.38;;
12224;SDS011;6175;50.956;11.064;2023-05-19T02:48:28;3.90;;;3.60;;
12224;SDS011;6175;50.956;11.064;2023-05-19T02:50:55;4.80;;;3.25;;
12224;SDS011;6175;50.956;11.064;2023-05-19T02:53:24;3.88;;;3.47;;
12224;SDS011;6175;50.956;11.064;2023-05-19T02:55:50;4.60;;;3.90;;
12224;SDS011;6175;50.956;11.064;2023-05-19T02:58:17;5.30;;;4.20;;
12224;SDS011;6175;50.956;11.064;2023-05-19T03:00:45;5.50;;;4.38;;
12224;SDS011;6175;50.956;11.064;2023-05-19T03:03:12;6.78;;;4.50;;
12224;SDS011;6175;50.956;11.064;2023-05-19T03:05:39;5.53;;;4.07;;
12224;SDS011;6175;50.956;11.064;2023-05-19T03:08:06;4.90;;;3.80;;
12224;SDS011;6175;50.956;11.064;2023-05-19T03:10:35;4.78;;;3.80;;
12224;SDS011;6175;50.956;11.064;2023-05-19T03:13:02;5.47;;;4.22;;
12224;SDS011;6175;50.956;11.064;2023-05-19T03:15:30;4.47;;;4.00;;
12224;SDS011;6175;50.956;11.064;2023-05-19T03:17:58;5.43;;;3.90;;
12224;SDS011;6175;50.956;11.064;2023-05-19T03:20:25;5.32;;;3.95;;
12224;SDS011;6175;50.956;11.064;2023-05-19T03:22:54;6.38;;;4.35;;
12224;SDS011;6175;50.956;11.064;2023-05-19T03:25:21;5.68;;;4.15;;
12224;SDS011;6175;50.956;11.064;2023-05-19T03:27:49;4.97;;;4.45;;
12224;SDS011;6175;50.956;11.064;2023-05-19T03:30:17;6.38;;;4.25;;
12224;SDS011;6175;50.956;11.064;2023-05-19T03:32:44;5.40;;;4.15;;
12224;SDS011;6175;50.956;11.064;2023-05-19T03:35:11;5.53;;;4.25;;
12224;SDS011;6175;50.956;11.064;2023-05-19T03:37:38;5.03;;;4.07;;
12224;SDS011;6175;50.956;11.064;2023-05-19T03:40:06;5.70;;;4.07;;
12224;SDS011;6175;50.956;11.064;2023-05-19T03:42:33;6.25;;;4.53;;
12224;SDS011;6175;50.956;11.064;2023-05-19T03:45:01;5.95;;;4.35;;
12224;SDS011;6175;50.956;11.064;2023-05-19T03:47:29;5.68;;;4.30;;
12224;SDS011;6175;50.956;11.064;2023-05-19T03:49:56;4.90;;;4.40;;
12224;SDS011;6175;50.956;11.064;2023-05-19T03:52:23;4.43;;;3.65;;
12224;SDS011;6175;50.956;11.064;2023-05-19T03:54:50;5.68;;;4.20;;
12224;SDS011;6175;50.956;11.064;2023-05-19T03:57:17;5.80;;;4.32;;
12224;SDS011;6175;50.956;11.064;2023-05-19T03:59:45;6.35;;;3.90;;
12224;SDS011;6175;50.956;11.064;2023-05-19T04:02:14;5.57;;;4.45;;
12224;SDS011;6175;50.956;11.064;2023-05-19T04:04:41;4.85;;;4.07;;
12224;SDS011;6175;50.956;11.064;2023-05-19T04:07:08;5.88;;;5.05;;
12224;SDS011;6175;50.956;11.064;2023-05-19T04:09:35;4.68;;;3.78;;
12224;SDS011;6175;50.956;11.064;2023-05-19T04:12:03;6.40;;;4.20;;
12224;SDS011;6175;50.956;11.064;2023-05-19T04:14:30;6.03;;;4.35;;
12224;SDS011;6175;50.956;11.064;2023-05-19T04:16:57;6.78;;;4.45;;
12224;SDS011;6175;50.956;11.064;2023-05-19T04:19:26;4.80;;;3.70;;
12224;SDS011;6175;50.956;11.064;2023-05-19T04:21:52;5.25;;;4.25;;
12224;SDS011;6175;50.956;11.064;2023-05-19T04:24:20;5.32;;;4.30;;
12224;SDS011;6175;50.956;11.064;2023-05-19T04:26:48;4.47;;;3.80;;
12224;SDS011;6175;50.956;11.064;2023-05-19T04:29:16;6.63;;;3.63;;
12224;SDS011;6175;50.956;11.064;2023-05-19T04:31:43;4.97;;;3.53;;
12224;SDS011;6175;50.956;11.064;2023-05-19T04:34:10;4.43;;;4.00;;
12224;SDS011;6175;50.956;11.064;2023-05-19T04:36:38;5.72;;;4.00;;
12224;SDS011;6175;50.956;11.064;2023-05-19T04:39:06;7.07;;;4.38;;
12224;SDS011;6175;50.956;11.064;2023-05-19T04:41:36;5.43;;;3.70;;
12224;SDS011;6175;50.956;11.064;2023-05-19T04:44:04;8.73;;;4.30;;
12224;SDS011;6175;50.956;11.064;2023-05-19T04:46:32;4.43;;;4.00;;
12224;SDS011;6175;50.956;11.064;2023-05-19T04:49:00;6.60;;;4.43;;
12224;SDS011;6175;50.956;11.064;2023-05-19T04:51:27;6.70;;;4.45;;
12224;SDS011;6175;50.956;11.064;2023-05-19T04:53:56;9.63;;;4.43;;
12224;SDS011;6175;50.956;11.064;2023-05-19T04:56:23;5.85;;;4.18;;
12224;SDS011;6175;50.956;11.064;2023-05-19T04:58:51;4.78;;;3.88;;
12224;SDS011;6175;50.956;11.064;2023-05-19T05:01:18;6.70;;;3.95;;
12224;SDS011;6175;50.956;11.064;2023-05-19T05:03:49;4.57;;;4.07;;
12224;SDS011;6175;50.956;11.064;2023-05-19T05:06:19;4.85;;;3.67;;
12224;SDS011;6175;50.956;11.064;2023-05-19T05:08:46;6.00;;;3.83;;
12224;SDS011;6175;50.956;11.064;2023-05-19T05:11:15;5.00;;;3.78;;
12224;SDS011;6175;50.956;11.064;2023-05-19T05:13:43;6.25;;;4.10;;
12224;SDS011;6175;50.956;11.064;2023-05-19T05:16:10;6.07;;;3.88;;
12224;SDS011;6175;50.956;11.064;2023-05-19T05:18:38;4.78;;;4.07;;
12224;SDS011;6175;50.956;11.064;2023-05-19T05:21:06;5.35;;;3.55;;
12224;SDS011;6175;50.956;11.064;2023-05-19T05:23:33;6.32;;;4.20;;
12224;SDS011;6175;50.956;11.064;2023-05-19T05:26:01;5.10;;;3.60;;
12224;SDS011;6175;50.956;11.064;2023-05-19T05:28:40;5.20;;;3.80;;
12224;SDS011;6175;50.956;11.064;2023-05-19T05:31:07;4.97;;;3.72;;
12224;SDS011;6175;50.956;11.064;2023-05-19T05:33:34;6.60;;;3.58;;
12224;SDS011;6175;50.956;11.064;2023-05-19T05:36:01;6.72;;;4.07;;
12224;SDS011;6175;50.956;11.064;2023-05-19T05:38:28;4.35;;;3.75;;
12224;SDS011;6175;50.956;11.064;2023-05-19T05:40:55;5.78;;;4.40;;
12224;SDS011;6175;50.956;11.064;2023-05-19T05:43:23;5.10;;;3.60;;
12224;SDS011;6175;50.956;11.064;2023-05-19T05:45:51;5.88;;;3.55;;
12224;SDS011;6175;50.956;11.064;2023-05-19T05:48:18;5.80;;;3.90;;
12224;SDS011;6175;50.956;11.064;2023-05-19T05:50:45;3.72;;;3.40;;
12224;SDS011;6175;50.956;11.064;2023-05-19T05:53:15;4.97;;;3.67;;
12224;SDS011;6175;50.956;11.064;2023-05-19T05:55:44;7.40;;;3.53;;
12224;SDS011;6175;50.956;11.064;2023-05-19T05:58:11;4.40;;;3.40;;
12224;SDS011;6175;50.956;11.064;2023-05-19T06:00:39;6.95;;;3.70;;
12224;SDS011;6175;50.956;11.064;2023-05-19T06:03:09;6.22;;;3.47;;
12224;SDS011;6175;50.956;11.064;2023-05-19T06:05:37;4.63;;;3.35;;
12224;SDS011;6175;50.956;11.064;2023-05-19T06:08:04;6.40;;;3.63;;
12224;SDS011;6175;50.956;11.064;2023-05-19T06:10:31;6.03;;;3.80;;
12224;SDS011;6175;50.956;11.064;2023-05-19T06:12:59;5.68;;;3.28;;
12224;SDS011;6175;50.956;11.064;2023-05-19T06:15:26;6.30;;;3.60;;
12224;SDS011;6175;50.956;11.064;2023-05-19T06:17:53;6.97;;;3.72;;
12224;SDS011;6175;50.956;11.064;2023-05-19T06:20:22;4.05;;;3.53;;
12224;SDS011;6175;50.956;11.064;2023-05-19T06:22:49;4.22;;;3.33;;
12224;SDS011;6175;50.956;11.064;2023-05-19T06:25:16;6.47;;;3.45;;
12224;SDS011;6175;50.956;11.064;2023-05-19T06:27:44;6.60;;;3.97;;
12224;SDS011;6175;50.956;11.064;2023-05-19T06:30:11;4.47;;;3.00;;
12224;SDS011;6175;50.956;11.064;2023-05-19T06:32:39;7.43;;;3.60;;
12224;SDS011;6175;50.956;11.064;2023-05-19T06:35:06;4.57;;;3.15;;
12224;SDS011;6175;50.956;11.064;2023-05-19T06:37:34;5.93;;;3.88;;
12224;SDS011;6175;50.956;11.064;2023-05-19T06:40:01;4.53;;;3.00;;
12224;SDS011;6175;50.956;11.064;2023-05-19T06:42:29;4.82;;;3.50;;
12224;SDS011;6175;50.956;11.064;2023-05-19T06:44:56;4.65;;;3.47;;
12224;SDS011;6175;50.956;11.064;2023-05-19T06:47:24;6.05;;;3.67;;
12224;SDS011;6175;50.956;11.064;2023-05-19T06:49:51;3.65;;;3.13;;
12224;SDS011;6175;50.956;11.064;2023-05-19T06:52:19;5.10;;;3.10;;
12224;SDS011;6175;50.956;11.064;2023-05-19T06:54:47;4.25;;;2.97;;
12224;SDS011;6175;50.956;11.064;2023-05-19T06:57:15;5.40;;;3.33;;
12224;SDS011;6175;50.956;11.064;2023-05-19T06:59:42;5.55;;;3.50;;
12224;SDS011;6175;50.956;11.064;2023-05-19T07:02:10;5.47;;;3.40;;
12224;SDS011;6175;50.956;11.064;2023-05-19T07:04:38;4.68;;;3.33;;
12224;SDS011;6175;50.956;11.064;2023-05-19T07:07:06;4.50;;;3.42;;
12224;SDS011;6175;50.956;11.064;2023-05-19T07:09:33;5.50;;;3.65;;
12224;SDS011;6175;50.956;11.064;2023-05-19T07:12:01;7.38;;;3.08;;
12224;SDS011;6175;50.956;11.064;2023-05-19T07:14:28;6.68;;;3.33;;
12224;SDS011;6175;50.956;11.064;2023-05-19T07:16:55;6.78;;;3.53;;
12224;SDS011;6175;50.956;11.064;2023-05-19T07:19:22;7.40;;;3.72;;
12224;SDS011;6175;50.956;11.064;2023-05-19T07:21:49;6.70;;;3.70;;
12224;SDS011;6175;50.956;11.064;2023-05-19T07:24:17;7.72;;;3.78;;
12224;SDS011;6175;50.956;11.064;2023-05-19T07:26:45;6.72;;;4.07;;
12224;SDS011;6175;50.956;11.064;2023-05-19T07:29:13;6.43;;;3.50;;
12224;SDS011;6175;50.956;11.064;2023-05-19T07:31:41;7.63;;;3.42;;
12224;SDS011;6175;50.956;11.064;2023-05-19T07:34:08;6.97;;;3.40;;
12224;SDS011;6175;50.956;11.064;2023-05-19T07:36:35;6.22;;;3.58;;
12224;SDS011;6175;50.956;11.064;2023-05-19T07:39:02;6.15;;;3.58;;
12224;SDS011;6175;50.956;11.064;2023-05-19T07:41:29;4.03;;;3.00;;
12224;SDS011;6175;50.956;11.064;2023-05-19T07:43:56;5.22;;;3.30;;
12224;SDS011;6175;50.956;11.064;2023-05-19T07:46:24;4.07;;;2.92;;
12224;SDS011;6175;50.956;11.064;2023-05-19T07:48:51;8.05;;;3.28;;
12224;SDS011;6175;50.956;11.064;2023-05-19T07:51:18;6.80;;;3.53;;
12224;SDS011;6175;50.956;11.064;2023-05-19T07:53:45;4.72;;;3.30;;
12224;SDS011;6175;50.956;11.064;2023-05-19T07:56:12;3.95;;;2.83;;
12224;SDS011;6175;50.956;11.064;2023-05-19T07:58:39;4.32;;;3.33;;
12224;SDS011;6175;50.956;11.064;2023-05-19T08:01:07;6.10;;;3.80;;
12224;SDS011;6175;50.956;11.064;2023-05-19T08:03:35;3.97;;;3.35;;
12224;SDS011;6175;50.956;11.064;2023-05-19T08:06:02;6.93;;;3.10;;
12224;SDS011;6175;50.956;11.064;2023-05-19T08:08:29;5.60;;;3.80;;
12224;SDS011;6175;50.956;11.064;2023-05-19T08:10:57;3.95;;;3.40;;
12224;SDS011;6175;50.956;11.064;2023-05-19T08:13:27;4.88;;;3.67;;
12224;SDS011;6175;50.956;11.064;2023-05-19T08:15:54;4.80;;;3.50;;
12224;SDS011;6175;50.956;11.064;2023-05-19T08:18:23;5.88;;;3.25;;
12224;SDS011;6175;50.956;11.064;2023-05-19T08:20:52;5.47;;;2.97;;
12224;SDS011;6175;50.956;11.064;2023-05-19T08:23:19;3.40;;;3.00;;
12224;SDS011;6175;50.956;11.064;2023-05-19T08:25:46;5.63;;;3.17;;
12224;SDS011;6175;50.956;11.064;2023-05-19T08:28:13;5.07;;;3.05;;
12224;SDS011;6175;50.956;11.064;2023-05-19T08:30:40;3.80;;;2.95;;
12224;SDS011;6175;50.956;11.064;2023-05-19T08:33:08;8.32;;;3.70;;
12224;SDS011;6175;50.956;11.064;2023-05-19T08:35:35;6.43;;;2.92;;
12224;SDS011;6175;50.956;11.064;2023-05-19T08:38:04;3.58;;;3.28;;
12224;SDS011;6175;50.956;11.064;2023-05-19T08:40:31;3.75;;;2.50;;
12224;SDS011;6175;50.956;11.064;2023-05-19T08:43:00;6.13;;;3.08;;
12224;SDS011;6175;50.956;11.064;2023-05-19T08:45:27;3.58;;;2.70;;
12224;SDS011;6175;50.956;11.064;2023-05-19T08:47:54;2.97;;;2.65;;
12224;SDS011;6175;50.956;11.064;2023-05-19T08:50:22;4.15;;;3.00;;
12224;SDS011;6175;50.956;11.064;2023-05-19T08:52:55;4.15;;;2.80;;
12224;SDS011;6175;50.956;11.064;2023-05-19T08:55:30;4.55;;;3.05;;
12224;SDS011;6175;50.956;11.064;2023-05-19T08:58:02;5.95;;;2.60;;
12224;SDS011;6175;50.956;11.064;2023-05-19T09:00:29;4.18;;;2.70;;
12224;SDS011;6175;50.956;11.064;2023-05-19T09:02:57;3.45;;;2.65;;
12224;SDS011;6175;50.956;11.064;2023-05-19T09:05:25;3.60;;;2.47;;
12224;SDS011;6175;50.956;11.064;2023-05-19T09:07:52;3.13;;;2.65;;
12224;SDS011;6175;50.956;11.064;2023-05-19T09:10:21;3.15;;;2.85;;
12224;SDS011;6175;50.956;11.064;2023-05-19T09:12:49;3.88;;;2.67;;
12224;SDS011;6175;50.956;11.064;2023-05-19T09:15:16;2.83;;;2.30;;
12224;SDS011;6175;50.956;11.064;2023-05-19T09:17:44;3.42;;;2.58;;
12224;SDS011;6175;50.956;11.064;2023-05-19T09:20:12;2.97;;;2.10;;
12224;SDS011;6175;50.956;11.064;2023-05-19T09:22:40;2.30;;;2.08;;
12224;SDS011;6175;50.956;11.064;2023-05-19T09:25:18;2.92;;;2.30;;
12224;SDS011;6175;50.956;11.064;2023-05-19T09:27:46;2.35;;;2.00;;
12224;SDS011;6175;50.956;11.064;2023-05-19T09:30:16;2.78;;;1.92;;
12224;SDS011;6175;50.956;11.064;2023-05-19T09:32:43;3.47;;;2.17;;
12224;SDS011;6175;50.956;11.064;2023-05-19T09:35:10;3.35;;;2.28;;
12224;SDS011;6175;50.956;11.064;2023-05-19T09:37:38;2.80;;;2.10;;
12224;SDS011;6175;50.956;11.064;2023-05-19T09:40:06;3.13;;;1.90;;
12224;SDS011;6175;50.956;11.064;2023-05-19T09:42:35;3.55;;;2.60;;
12224;SDS011;6175;50.956;11.064;2023-05-19T09:45:03;2.47;;;1.90;;
12224;SDS011;6175;50.956;11.064;2023-05-19T09:47:43;4.00;;;2.50;;
12224;SDS011;6175;50.956;11.064;2023-05-19T09:50:11;2.60;;;2.40;;
12224;SDS011;6175;50.956;11.064;2023-05-19T09:52:39;4.72;;;2.80;;
12224;SDS011;6175;50.956;11.064;2023-05-19T09:55:08;2.63;;;2.42;;
12224;SDS011;6175;50.956;11.064;2023-05-19T09:57:37;3.83;;;2.53;;
12224;SDS011;6175;50.956;11.064;2023-05-19T10:00:04;4.30;;;2.50;;
12224;SDS011;6175;50.956;11.064;2023-05-19T10:02:39;3.28;;;2.30;;
12224;SDS011;6175;50.956;11.064;2023-05-19T10:05:07;4.25;;;2.47;;
12224;SDS011;6175;50.956;11.064;2023-05-19T10:07:36;3.05;;;2.33;;
12224;SDS011;6175;50.956;11.064;2023-05-19T10:10:06;2.50;;;2.30;;
12224;SDS011;6175;50.956;11.064;2023-05-19T10:12:37;2.85;;;2.50;;
12224;SDS011;6175;50.956;11.064;2023-05-19T10:15:05;4.13;;;2.65;;
12224;SDS011;6175;50.956;11.064;2023-05-19T10:17:34;3.25;;;2.35;;
12224;SDS011;6175;50.956;11.064;2023-05-19T10:20:04;4.07;;;2.40;;
12224;SDS011;6175;50.956;11.064;2023-05-19T10:22:33;3.05;;;2.08;;
12224;SDS011;6175;50.956;11.064;2023-05-19T10:25:01;4.68;;;2.10;;
12224;SDS011;6175;50.956;11.064;2023-05-19T10:27:28;2.50;;;2.30;;
12224;SDS011;6175;50.956;11.064;2023-05-19T10:29:57;3.17;;;2.20;;
12224;SDS011;6175;50.956;11.064;2023-05-19T10:32:27;2.25;;;2.03;;
12224;SDS011;6175;50.956;11.064;2023-05-19T10:35:13;5.10;;;2.50;;
12224;SDS011;6175;50.956;11.064;2023-05-19T10:37:52;3.60;;;2.30;;
12224;SDS011;6175;50.956;11.064;2023-05-19T10:40:25;3.40;;;2.05;;
12224;SDS011;6175;50.956;11.064;2023-05-19T10:42:59;2.45;;;2.00;;
12224;SDS011;6175;50.956;11.064;2023-05-19T10:45:33;3.53;;;2.00;;
12224;SDS011;6175;50.956;11.064;2023-05-19T10:48:03;3.80;;;2.40;;
12224;SDS011;6175;50.956;11.064;2023-05-19T10:50:35;3.20;;;2.25;;
12224;SDS011;6175;50.956;11.064;2023-05-19T10:53:02;2.88;;;2.25;;
12224;SDS011;6175;50.956;11.064;2023-05-19T10:55:45;2.20;;;2.00;;
12224;SDS011;6175;50.956;11.064;2023-05-19T10:58:12;2.22;;;2.03;;
12224;SDS011;6175;50.956;11.064;2023-05-19T11:00:40;2.05;;;1.92;;
12224;SDS011;6175;50.956;11.064;2023-05-19T11:03:13;2.70;;;1.95;;
12224;SDS011;6175;50.956;11.064;2023-05-19T11:05:43;2.13;;;1.73;;
12224;SDS011;6175;50.956;11.064;2023-05-19T11:08:10;2.25;;;2.00;;
12224;SDS011;6175;50.956;11.064;2023-05-19T11:10:38;2.10;;;1.77;;
12224;SDS011;6175;50.956;11.064;2023-05-19T11:13:05;3.42;;;2.17;;
12224;SDS011;6175;50.956;11.064;2023-05-19T11:15:35;1.88;;;1.77;;
12224;SDS011;6175;50.956;11.064;2023-05-19T11:18:03;2.38;;;2.15;;
12224;SDS011;6175;50.956;11.064;2023-05-19T11:20:30;2.25;;;2.03;;
12224;SDS011;6175;50.956;11.064;2023-05-19T11:23:07;2.70;;;2.10;;
12224;SDS011;6175;50.956;11.064;2023-05-19T11:25:44;3.55;;;2.00;;
12224;SDS011;6175;50.956;11.064;2023-05-19T11:28:12;2.30;;;1.80;;
12224;SDS011;6175;50.956;11.064;2023-05-19T11:30:41;3.65;;;2.40;;
12224;SDS011;6175;50.956;11.064;2023-05-19T11:33:08;3.35;;;1.98;;
12224;SDS011;6175;50.956;11.064;2023-05-19T11:35:35;3.40;;;1.88;;
12224;SDS011;6175;50.956;11.064;2023-05-19T11:38:02;4.00;;;2.05;;
12224;SDS011;6175;50.956;11.064;2023-05-19T11:40:31;3.38;;;1.95;;
12224;SDS011;6175;50.956;11.064;2023-05-19T11:42:58;1.90;;;1.80;;
12224;SDS011;6175;50.956;11.064;2023-05-19T11:45:26;3.67;;;1.90;;
12224;SDS011;6175;50.956;11.064;2023-05-19T11:47:54;3.42;;;1.73;;
12224;SDS011;6175;50.956;11.064;2023-05-19T11:50:21;3.35;;;2.17;;
12224;SDS011;6175;50.956;11.064;2023-05-19T11:52:49;3.00;;;1.83;;
12224;SDS011;6175;50.956;11.064;2023-05-19T11:55:16;2.35;;;1.83;;
12224;SDS011;6175;50.956;11.064;2023-05-19T11:57:56;2.42;;;1.70;;
12224;SDS011;6175;50.956;11.064;2023-05-19T12:00:24;3.15;;;2.15;;
12224;SDS011;6175;50.956;11.064;2023-05-19T12:02:51;2.50;;;1.70;;
12224;SDS011;6175;50.956;11.064;2023-05-19T12:05:18;2.25;;;1.77;;
12224;SDS011;6175;50.956;11.064;2023-05-19T12:07:46;2.72;;;1.70;;
12224;SDS011;6175;50.956;11.064;2023-05-19T12:10:13;2.30;;;2.00;;
12224;SDS011;6175;50.956;11.064;2023-05-19T12:12:41;2.22;;;1.60;;
12224;SDS011;6175;50.956;11.064;2023-05-19T12:15:11;3.08;;;1.90;;
12224;SDS011;6175;50.956;11.064;2023-05-19T12:17:38;3.30;;;2.10;;
12224;SDS011;6175;50.956;11.064;2023-05-19T12:20:05;3.45;;;2.15;;
12224;SDS011;6175;50.956;11.064;2023-05-19T12:22:33;3.22;;;2.10;;
12224;SDS011;6175;50.956;11.064;2023-05-19T12:25:00;3.47;;;2.20;;
12224;SDS011;6175;50.956;11.064;2023-05-19T12:27:29;3.40;;;2.10;;
12224;SDS011;6175;50.956;11.064;2023-05-19T12:29:56;2.38;;;2.00;;
12224;SDS011;6175;50.956;11.064;2023-05-19T12:32:24;4.68;;;2.08;;
12224;SDS011;6175;50.956;11.064;2023-05-19T12:34:52;3.20;;;1.90;;
12224;SDS011;6175;50.956;11.064;2023-05-19T12:37:21;2.03;;;1.80;;
12224;SDS011;6175;50.956;11.064;2023-05-19T12:39:48;5.03;;;2.35;;
12224;SDS011;6175;50.956;11.064;2023-05-19T12:42:16;3.92;;;2.42;;
12224;SDS011;6175;50.956;11.064;2023-05-19T12:44:43;2.88;;;1.80;;
12224;SDS011;6175;50.956;11.064;2023-05-19T12:47:11;4.30;;;1.92;;
12224;SDS011;6175;50.956;11.064;2023-05-19T12:49:53;3.90;;;1.65;;
12224;SDS011;6175;50.956;11.064;2023-05-19T12:52:21;2.15;;;1.73;;
12224;SDS011;6175;50.956;11.064;2023-05-19T12:54:48;2.13;;;1.80;;
12224;SDS011;6175;50.956;11.064;2023-05-19T12:57:16;3.58;;;1.92;;
12224;SDS011;6175;50.956;11.064;2023-05-19T12:59:43;3.42;;;2.10;;
12224;SDS011;6175;50.956;11.064;2023-05-19T13:02:11;2.28;;;1.85;;
12224;SDS011;6175;50.956;11.064;2023-05-19T13:04:38;2.55;;;1.83;;
12224;SDS011;6175;50.956;11.064;2023-05-19T13:07:07;4.20;;;1.77;;
12224;SDS011;6175;50.956;11.064;2023-05-19T13:09:34;2.45;;;1.90;;
12224;SDS011;6175;50.956;11.064;2023-05-19T13:12:02;1.77;;;1.63;;
12224;SDS011;6175;50.956;11.064;2023-05-19T13:14:30;2.38;;;1.80;;
12224;SDS011;6175;50.956;11.064;2023-05-19T13:16:57;2.78;;;1.80;;
12224;SDS011;6175;50.956;11.064;2023-05-19T13:19:24;3.03;;;2.00;;
12224;SDS011;6175;50.956;11.064;2023-05-19T13:21:51;2.20;;;1.73;;
12224;SDS011;6175;50.956;11.064;2023-05-19T13:24:20;2.40;;;1.77;;
12224;SDS011;6175;50.956;11.064;2023-05-19T13:26:47;2.33;;;1.83;;
12224;SDS011;6175;50.956;11.064;2023-05-19T13:29:14;2.40;;;1.75;;
12224;SDS011;6175;50.956;11.064;2023-05-19T13:31:41;2.60;;;1.90;;
12224;SDS011;6175;50.956;11.064;2023-05-19T13:34:08;2.67;;;1.85;;
12224;SDS011;6175;50.956;11.064;2023-05-19T13:36:35;2.47;;;1.88;;
12224;SDS011;6175;50.956;11.064;2023-05-19T13:39:03;1.98;;;1.80;;
12224;SDS011;6175;50.956;11.064;2023-05-19T13:41:31;2.28;;;1.75;;
12224;SDS011;6175;50.956;11.064;2023-05-19T13:43:59;3.70;;;2.03;;
12224;SDS011;6175;50.956;11.064;2023-05-19T13:46:26;4.07;;;1.77;;
12224;SDS011;6175;50.956;11.064;2023-05-19T13:48:53;2.10;;;1.42;;
12224;SDS011;6175;50.956;11.064;2023-05-19T13:51:20;3.05;;;1.90;;
12224;SDS011;6175;50.956;11.064;2023-05-19T13:53:47;2.72;;;1.80;;
12224;SDS011;6175;50.956;11.064;2023-05-19T13:56:15;2.20;;;2.00;;
12224;SDS011;6175;50.956;11.064;2023-05-19T13:58:43;2.58;;;1.77;;
12224;SDS011;6175;50.956;11.064;2023-05-19T14:01:10;2.22;;;1.77;;
12224;SDS011;6175;50.956;11.064;2023-05-19T14:03:37;2.17;;;1.60;;
12224;SDS011;6175;50.956;11.064;2023-05-19T14:06:05;2.88;;;1.90;;
12224;SDS011;6175;50.956;11.064;2023-05-19T14:08:33;2.05;;;1.58;;
12224;SDS011;6175;50.956;11.064;2023-05-19T14:11:00;3.22;;;2.00;;
12224;SDS011;6175;50.956;11.064;2023-05-19T14:13:27;2.72;;;1.90;;
12224;SDS011;6175;50.956;11.064;2023-05-19T14:15:56;3.10;;;2.17;;
12224;SDS011;6175;50.956;11.064;2023-05-19T14:18:22;3.40;;;2.15;;
12224;SDS011;6175;50.956;11.064;2023-05-19T14:20:50;3.80;;;2.10;;
12224;SDS011;6175;50.956;11.064;2023-05-19T14:23:17;2.10;;;1.90;;
12224;SDS011;6175;50.956;11.064;2023-05-19T14:25:45;4.20;;;2.70;;
12224;SDS011;6175;50.956;11.064;2023-05-19T14:28:12;4.25;;;2.22;;
12224;SDS011;6175;50.956;11.064;2023-05-19T14:30:39;3.42;;;2.28;;
12224;SDS011;6175;50.956;11.064;2023-05-19T14:33:08;2.65;;;1.98;;
12224;SDS011;6175;50.956;11.064;2023-05-19T14:35:35;2.55;;;2.08;;
12224;SDS011;6175;50.956;11.064;2023-05-19T14:38:02;6.28;;;2.50;;
12224;SDS011;6175;50.956;11.064;2023-05-19T14:40:30;4.40;;;1.90;;
12224;SDS011;6175;50.956;11.064;2023-05-19T14:42:57;3.25;;;2.28;;
12224;SDS011;6175;50.956;11.064;2023-05-19T14:45:24;2.55;;;2.35;;
12224;SDS011;6175;50.956;11.064;2023-05-19T14:47:51;4.68;;;2.38;;
12224;SDS011;6175;50.956;11.064;2023-05-19T14:50:20;4.05;;;2.10;;
12224;SDS011;6175;50.956;11.064;2023-05-19T14:52:47;2.70;;;2.20;;
12224;SDS011;6175;50.956;11.064;2023-05-19T14:55:14;3.35;;;2.08;;
12224;SDS011;6175;50.956;11.064;2023-05-19T14:57:41;2.33;;;1.98;;
12224;SDS011;6175;50.956;11.064;2023-05-19T15:00:08;2.95;;;2.38;;